RJOHRJOO

Guest
Details From RJOH - MIHO
To RJOO - OSAKA INTL
Flight Number -
Tags generated
Created
Modified
Stats Distance 116 nm / 215 km
Max Altitude 8,300 ft / 2,530 m
Waypoints 3
Social Downloads 1
Likes 0
Share VATSIM

Download

Looking for another format? Having issues loading an existing format? Contact us
Advertisement - Login to hide

Notes

Basic altitude profile: - Ascent Rate: 2500ft/min - Ascent Speed: 250kts - Cruise Altitude: 18000ft - Cruise Speed: 420kts - Descent Rate: 1500ft/min - Descent Speed: 250kts Options: - Use NATs: yes - Use PACOTS: yes - Use low airways: no - Use high airways: yes

Route

RJOH KAMMY RJOO

ID Type Via Altitude (ft/m) Position (lat/lon) Dist (leg/tot) Name
O RJOH APT - 0 / 0 35.49147 / 133.23572 - / 0 nm MIHO
KAMMY FIX - 8,300 / 2,530 34.99101 / 134.68853 77 / 77 nm
O RJOO APT - 0 / 0 34.78560 / 135.43802 38 / 116 nm OSAKA INTL

Altitude Profile

Advertisement - Login to hide

RJOH

Details ICAO RJOH (YGJ)
Name MIHO
Region Japan
Timezone Asia/Tokyo (UTC+9.0)
Stats Elevation 20 ft / 6 m (AMSL)
Location 35.491500° 133.236000°
Runways 1
Magnetic Variation 8.076° W

METAR

RJOH 151900Z 18003KT 9999 FEW030 BKN050 BKN/// 13/10 Q1017

Decode

TAF

TAF RJOH 151705Z 1518/1700 19004KT 9999 FEW030 BECMG 1600/1602 04007KT BECMG 1615/1618 19004KT

Decode

Departure Runways

ID Width Length Bearing (true/mag) Surface Threshold Overrun Markings Lighting
07 148 ft / 45 m 6,558 ft / 1,999 m 63.80° / 71.87° ASPHALT 0 ft / 0 m 200 ft / 61 m APP EDGE THRESHOLD SSALR
25 148 ft / 45 m 6,558 ft / 1,999 m 243.81° / 251.89° ASPHALT 0 ft / 0 m 200 ft / 61 m PREC-APP EDGE THRESHOLD ALSF-I

RJOO

Details ICAO RJOO (ITM)
Name Osaka International
Region Japan
Timezone Asia/Tokyo (UTC+9.0)
Stats Elevation 48 ft / 15 m (AMSL)
Location 34.785600° 135.438000°
Runways 2
Magnetic Variation 7.734° W

METAR

Not found

TAF

TAF RJOO 151707Z 1518/1700 32004KT 9999 FEW025

Decode

Destination Runways

ID Width Length Bearing (true/mag) Surface Threshold Overrun Markings Lighting
14L 143 ft / 44 m 5,995 ft / 1,827 m 135.18° / 142.91° ASPHALT 128 ft / 39 m 679 ft / 207 m PREC-APP CENTERLINE EDGE THRESHOLD MALSR REIL-OMNI
14R 200 ft / 61 m 9,846 ft / 3,001 m 135.14° / 142.87° ASPHALT 128 ft / 39 m 213 ft / 65 m PREC-APP CENTERLINE EDGE THRESHOLD MALS REIL-OMNI
32L 200 ft / 61 m 9,846 ft / 3,001 m 315.15° / 322.89° ASPHALT 125 ft / 38 m 249 ft / 76 m PREC-APP CENTERLINE EDGE THRESHOLD SALS TDZ
32R 143 ft / 44 m 5,995 ft / 1,827 m 315.18° / 322.92° ASPHALT 118 ft / 36 m 571 ft / 174 m PREC-APP CENTERLINE EDGE THRESHOLD ALSF-I TDZ

Approach Navaids

Runway Type Ident Frequency Range Bearing (true/mag) Slope Elevation
32L LOC-ILS ISK 110.10 MHz 18 nm / 33 km 315.13° / 322.87 ° - 50 ft / 15 m (AMSL)
32L GS ISK 110.10 MHz 10 nm / 19 km 315.28° / 323.01 ° 3.00° 54 ft / 16 m (AMSL)
32L OM OM - - 315.14° / 322.87 ° - 50 ft / 15 m (AMSL)
32L MM MM - - 315.14° / 322.87 ° - 50 ft / 15 m (AMSL)

Popular Alternatives